Anza Borrego Desert Research Center, California Weather observations

Data are for 10 minute period ending at time listed.
 Day   Time   Solar   Ave.   Ave.  Ave.  Vector  Max.   Baro.   Total    
  of    of     Rad.   Air    Rel.  Wind   Wind   Wind  Press.  Precip.   
Year   Day            Temp.  Hum.  Speed  Dir.   Gust                    
2015   (PST)  Kw/m2    F      %     mph   deg.    mph    mb.     in.     
-------------------------------------------------------------------------
 213   11:50   0.98  104.2    12    5.9    60    12.1   979.9    0.00 
 213   12:00   0.98  104.9    12    5.9    95    12.7   979.7    0.00 
 213   12:10   0.99  105.4    11    6.0   102    12.2   979.6    0.00 
 213   12:20   0.98  105.1    12    7.3   116    12.7   979.5    0.00 
 213   12:30   0.98  105.9    11    3.4    51     7.3   979.3    0.00 
 213   12:40   0.96  107.2    10    6.5   105    14.0   979.1    0.00 
 213   12:50   0.97  107.5    11    4.0   102    14.3   978.9    0.00 
 213   13:00   0.98  108.0    11    8.8   120    15.1   978.9    0.00 
 213   13:10   0.99  107.7    11    7.4   125    15.9   978.8    0.00 
 213   13:20   1.02  107.6    11    7.4   121    17.1   978.7    0.00 
 213   13:30   0.66  106.6    11    7.1   101    13.7   978.7    0.00 
 213   13:40   0.91  107.2    11    6.1   126    17.8   978.5    0.00 
 213   13:50   1.00  107.6    11    9.8   107    16.6   978.4    0.00 
 213   14:00   0.92  107.4    12    9.5   122    17.2   978.4    0.00 
 213   14:10   0.79  107.2    12    9.4    99    18.3   978.3    0.00 
 213   14:20   0.36  106.4    12    8.9   128    13.7   978.1    0.00 
 213   14:30   0.44  106.1    11    6.3   134    10.8   977.9    0.00 
 213   14:40   0.61  107.3    11    6.6   160    16.3   977.7    0.00 
 213   14:50   0.47  106.5    11    5.9   139    10.2   977.7    0.00 
 213   15:00   0.71  107.5    11    4.5    86     8.0   977.6    0.00 
 213   15:10   0.40  107.7    10    1.9    77     6.1   977.5    0.00 
 213   15:20   0.37  106.8    11    4.1    49     7.2   977.3    0.00 
 213   15:30   0.48  107.1    11    3.5    91     8.0   977.2    0.00 
 213   15:40   0.41  107.8    11    6.4    90    12.7   977.1    0.00 
 213   15:50   0.31  105.7    12    9.8   110    15.2   977.1    0.00 
 213   16:00   0.51  106.2    12    9.1    94    13.7   977.0    0.00 
 213   16:10   0.54  106.5    11    8.7    92    15.6   976.9    0.00 
 213   16:20   0.49  106.5    11    9.7    94    14.7   976.8    0.00 
 213   16:30   0.44  106.7    11    7.9   109    11.1   976.7    0.00 
 213   16:40   0.40  106.8    11    6.1   103    10.7   976.6    0.00 
 213   16:50   0.35  107.4    11    4.3    12     9.3   976.5    0.00 
 213   17:00   0.32  107.4    11    3.6    71     7.2   976.4    0.00 
 213   17:10   0.28  107.4    11    4.7    42     8.2   976.3    0.00 
 213   17:20   0.24  107.6    11    3.2    50     6.6   976.3    0.00 
 213   17:30   0.21  107.3    12    5.9   255    14.5   976.4    0.00 
 213   17:40   0.08  104.5    13    7.3   293    14.0   976.4    0.00 
 213   17:50   0.03  102.2    14    8.3   312    13.7   976.5    0.00 
 213   18:00   0.03  101.5    15    8.7   307    16.1   976.5    0.00 
 213   18:10   0.01  101.1    16    8.6   302    14.9   976.6    0.00 
 213   18:20   0.01  100.5    17    7.1   307    13.5   976.7    0.00 
 213   18:30   0.01  100.4    16    9.6   301    15.9   976.8    0.00 
 213   18:40   0.01  100.1    16    4.5   305     7.6   976.9    0.00 
 213   18:50   0.00   99.4    15    7.6   305    14.8   977.0    0.00 
 213   19:00   0.00   99.2    14    8.5   315    14.1   977.1    0.00 
 213   19:10   0.00   99.2    14    8.1   309    15.0   977.2    0.00 
 213   19:20   0.00   99.0    13    7.5   308    13.3   977.3    0.00 
 213   19:30   0.00   98.7    12    3.3   289     8.4   977.4    0.00 
 213   19:40   0.00   98.6    12    5.4   320    10.0   977.5    0.00 
 213   19:50   0.00   98.8    11    4.6   330     8.9   977.7    0.00 
 213   20:00   0.00   98.1    12    3.8    46     6.4   977.8    0.00 
 213   20:10   0.00   96.6    15    4.2   114     7.4   977.9    0.00 
 213   20:20   0.00   95.4    15    6.5   127     7.7   978.1    0.00 
 213   20:30   0.00   95.5    15    5.0   112     7.5   978.3    0.00 
 213   20:40   0.00   95.2    15    3.4    88     5.9   978.4    0.00 
 213   20:50   0.00   93.9    16    2.3    83     4.5   978.4    0.00 
 213   21:00   0.00   93.3    16    1.9   130     3.9   978.4    0.00 
 213   21:10   0.00   93.0    16    3.4   150     7.6   978.0    0.00 
 213   21:20   0.00   92.2    16    2.9   162     4.7   977.5    0.00 
 213   21:30   0.00   91.1    16    3.3   181     5.2   589.7    0.00 
 213   21:40   0.00   91.4    16    3.1   220     5.6   502.1    0.00 
 213   21:50   0.00   90.2    17    5.3   215     6.6   502.1    0.00 
 213   22:00   0.00   89.8    17    4.9   200     7.1   502.1    0.00 
 213   22:10   0.00   89.8    18    2.7   161     5.8   502.1    0.00 
 213   22:20   0.00   88.9    18    2.6   230     4.6   502.0    0.00 
 213   22:30   0.00   87.9    18    3.6   241     4.6   502.0    0.00 
 213   22:40   0.00   86.5    18    1.9   253     3.4   502.0    0.00 
 213   22:50   0.00   86.2    18    2.3   312     3.7   502.0    0.00 
 213   23:00   0.00   87.0    18    3.5   296     4.5   502.0    0.00 
 213   23:10   0.00   85.2    18    2.9   281     4.5   502.0    0.00 
 213   23:20   0.00   84.9    17    3.1   299     5.8   502.0    0.00 
 213   23:30   0.00   87.2    18    2.5   354     3.5   502.0    0.00 
 213   23:40   0.00   85.6    18    0.7   357     2.3   502.0    0.00 
 213   23:50   0.00   86.3    19    0.8   209     2.3   502.0    0.00 
 214    0:00   0.00   86.8    19    1.2   176     2.6   502.0    0.00 
 214    0:10   0.00   84.5    20    3.0   254     5.5   502.0    0.00 
 214    0:20   0.00   85.2    19    1.3   252     2.3   502.0    0.00 
 214    0:30   0.00   82.5    19    0.8   228     2.9   502.0    0.00 
 214    0:40   0.00   81.8    20    3.5   225     4.4   502.0    0.00 
 214    0:50   0.00   82.7    20    5.2   214     6.1   502.0    0.00 
 214    1:00   0.00   85.1    16    6.9   236     8.5   502.0    0.00 
 214    1:10   0.00   85.7    16    7.0   252     8.6   502.0    0.00 
 214    1:20   0.00   86.9    15    6.7   247     8.3   502.0    0.00 
 214    1:30   0.00   87.2    15    4.5   238     8.6   502.0    0.00 
 214    1:40   0.00   85.7    16    4.1   316     7.1   502.0    0.00 
 214    1:50   0.00   82.5    21    2.3   343     4.7   502.0    0.00 
 214    2:00   0.00   82.3    22    3.6   313     5.3   502.0    0.00 
 214    2:10   0.00   80.8    22    3.3   266     4.7   502.0    0.00 
 214    2:20   0.00   80.4    22    3.6   268     4.8   502.0    0.00 
 214    2:30   0.00   81.5    20    3.7   240     5.0   502.0    0.00 
 214    2:40   0.00   82.2    19    2.2   229     3.5   502.0    0.00 
 214    2:50   0.00   81.2    19    3.0   282     4.7   502.0    0.00 
 214    3:00   0.00   81.8    18    2.1   260     4.1   502.0    0.00 
 214    3:10   0.00   81.0    18    2.7   306     4.1   502.0    0.00 
 214    3:20   0.00   81.4    19    2.4   271     5.0   502.0    0.00 
 214    3:30   0.00   81.5    18    2.7   206     3.9   502.0    0.00 
 214    3:40   0.00   80.7    19    3.6   236     5.4   502.0    0.00 
 214    3:50   0.00   81.7    19    3.9   267     5.7   502.0    0.00 
 214    4:00   0.00   83.2    18    2.7   230     3.5   502.0    0.00 
 214    4:10   0.00   81.1    19    4.0   244     6.1   502.0    0.00 
 214    4:20   0.00   80.6    19    3.1   234     5.3   502.0    0.00 
 214    4:30   0.00   81.7    18    2.4   252     4.2   502.0    0.00 
 214    4:40   0.00   83.0    18    2.0   260     3.1   502.0    0.00 
 214    4:50   0.00   83.6    18    2.5   216     4.0   502.0    0.00 
 214    5:00   0.00   81.8    19    4.6   224     6.1   502.0    0.00 
 214    5:10   0.00   80.6    19    4.0   240     5.3   502.0    0.00 
 214    5:20   0.01   79.9    20    4.2   244     5.1   502.0    0.00 
 214    5:30   0.03   83.1    18    3.6   234     4.7   501.9    0.00 
 214    5:40   0.06   85.2    17    2.4   226     3.5   502.0    0.00 
 214    5:50   0.09   87.5    16    1.7   203     3.9   502.0    0.00 
 214    6:00   0.11   89.2    16    4.0   355     5.5   502.0    0.00 
 214    6:10   0.14   90.0    17    1.7     6     3.8   502.0    0.00 
 214    6:20   0.18   91.3    17    1.7   210     2.7   502.0    0.00 
 214    6:30   0.21   91.8    16    2.5   227     3.4   502.0    0.00 
 214    6:40   0.24   93.7    15    3.1   211     4.0   502.0    0.00 
 214    6:50   0.28   95.7    14    2.1   190     3.5   502.0    0.00 
 214    7:00   0.32   97.9    13    2.1   175     3.0   502.1    0.00 
 214    7:10   0.35   98.5    12    2.4   155     4.3   502.1    0.00 
 214    7:20   0.39   98.6    12    2.1   138     3.8   828.6    0.00 
 214    7:30   0.42   99.6    11    2.5   168     4.3   979.1    0.00 
 214    7:40   0.46   99.8    11    1.9    83     3.4   979.2    0.00 
 214    7:50   0.49  100.6    11    1.4    58     3.0   979.2    0.00 
 214    8:00   0.53  101.9    11    0.9    66     3.3   979.1    0.00 
 214    8:10   0.56  102.5    10    1.5    53     4.8   979.1    0.00 
 214    8:20   0.59  101.9    10    3.7    87     7.8   979.0    0.00 
 214    8:30   0.63  100.6    12    4.4    77     6.9   979.0    0.00 
 214    8:40   0.66  100.9    11    3.1    88     6.0   978.9    0.00 
 214    8:50   0.69  102.1    10    3.4    96     5.9   978.9    0.00 
 214    9:00   0.72  102.3    10    2.8    87     5.7   978.8    0.00 
 214    9:10   0.75  103.6    10    4.1    89     7.5   978.8    0.00 
 214    9:20   0.77  103.0     9    4.9   100     7.9   978.8    0.00 
 214    9:30   0.80  103.1     9    4.1    79     9.9   978.7    0.00 
 214    9:40   0.82  103.9     9    5.1    77     9.0   978.7    0.00 
 214    9:50   0.85  104.8     9    2.4    41     8.0   978.6    0.00 
 214   10:00   0.87  105.2     9    5.9    77     9.8   978.6    0.00 
 214   10:10   0.89  105.0    10    3.3    76     7.5   978.5    0.00 
 214   10:20   0.90  105.7    10    3.1   136     7.2   978.4    0.00 
 214   10:30   0.92  104.5    13    6.1   104    11.3   978.4    0.00 
 214   10:40   0.93  105.5    12    3.1   100    10.3   978.3    0.00 
 214   10:50   0.94  105.3    12    6.0    57    11.9   978.2    0.00 
 214   11:00   0.95  105.7    13    4.1    67     7.6   978.2    0.00 
 214   11:10   0.96  106.8    12    5.8    68    11.8   978.0    0.00 
 214   11:20   0.97  106.5    12    4.1   110     8.2   978.0    0.00 
 214   11:30   0.97  107.1    12    5.3   171    11.2   977.8    0.00 
 214   11:40   0.97  106.8    12    6.5   107    13.2   977.7    0.00 

Return to Anza Borrego Desert Research Center graphs page.


Western Regional Climate Center,wrcc@dri.edu